sensor_id;sensor_type;location;lat;lon;timestamp;temperature;humidity
13251;DHT22;6692;50.710;7.180;2024-02-26T00:00:12;7.60;99.90
13251;DHT22;6692;50.710;7.180;2024-02-26T00:02:13;7.60;99.90
13251;DHT22;6692;50.710;7.180;2024-02-26T00:04:14;7.60;99.90
13251;DHT22;6692;50.710;7.180;2024-02-26T00:06:16;7.50;99.90
13251;DHT22;6692;50.710;7.180;2024-02-26T00:08:16;7.50;99.90
13251;DHT22;6692;50.710;7.180;2024-02-26T00:10:17;7.50;99.90
13251;DHT22;6692;50.710;7.180;2024-02-26T00:12:18;7.50;99.90
13251;DHT22;6692;50.710;7.180;2024-02-26T00:14:19;7.50;99.90
13251;DHT22;6692;50.710;7.180;2024-02-26T00:16:21;7.50;99.90
13251;DHT22;6692;50.710;7.180;2024-02-26T00:18:21;7.50;99.90
13251;DHT22;6692;50.710;7.180;2024-02-26T00:20:22;7.50;99.90
13251;DHT22;6692;50.710;7.180;2024-02-26T00:22:23;7.50;99.90
13251;DHT22;6692;50.710;7.180;2024-02-26T00:24:24;7.60;99.90
13251;DHT22;6692;50.710;7.180;2024-02-26T00:26:24;7.60;99.90
13251;DHT22;6692;50.710;7.180;2024-02-26T00:28:25;7.60;99.90
13251;DHT22;6692;50.710;7.180;2024-02-26T00:30:26;7.60;99.90
13251;DHT22;6692;50.710;7.180;2024-02-26T00:32:27;7.60;99.90
13251;DHT22;6692;50.710;7.180;2024-02-26T00:34:29;7.60;99.90
13251;DHT22;6692;50.710;7.180;2024-02-26T00:36:31;7.60;99.90
13251;DHT22;6692;50.710;7.180;2024-02-26T00:38:32;7.60;99.90
13251;DHT22;6692;50.710;7.180;2024-02-26T00:40:32;7.60;99.90
13251;DHT22;6692;50.710;7.180;2024-02-26T00:42:33;7.60;99.90
13251;DHT22;6692;50.710;7.180;2024-02-26T00:44:35;7.60;99.90
13251;DHT22;6692;50.710;7.180;2024-02-26T00:46:35;7.60;99.90
13251;DHT22;6692;50.710;7.180;2024-02-26T00:48:37;7.60;99.90
13251;DHT22;6692;50.710;7.180;2024-02-26T00:50:38;7.60;99.90
13251;DHT22;6692;50.710;7.180;2024-02-26T00:52:39;7.60;99.90
13251;DHT22;6692;50.710;7.180;2024-02-26T00:54:39;7.60;99.90
13251;DHT22;6692;50.710;7.180;2024-02-26T00:56:40;7.60;99.90
13251;DHT22;6692;50.710;7.180;2024-02-26T00:58:41;7.60;99.90
13251;DHT22;6692;50.710;7.180;2024-02-26T01:00:41;7.60;99.90
13251;DHT22;6692;50.710;7.180;2024-02-26T01:02:43;7.60;99.90
13251;DHT22;6692;50.710;7.180;2024-02-26T01:04:44;7.60;99.90
13251;DHT22;6692;50.710;7.180;2024-02-26T01:06:44;7.60;99.90
13251;DHT22;6692;50.710;7.180;2024-02-26T01:08:46;7.60;99.90
13251;DHT22;6692;50.710;7.180;2024-02-26T01:10:47;7.60;99.90
13251;DHT22;6692;50.710;7.180;2024-02-26T01:12:48;7.60;99.90
13251;DHT22;6692;50.710;7.180;2024-02-26T01:14:49;7.60;99.90
13251;DHT22;6692;50.710;7.180;2024-02-26T01:16:50;7.60;99.90
13251;DHT22;6692;50.710;7.180;2024-02-26T01:18:51;7.60;99.90
13251;DHT22;6692;50.710;7.180;2024-02-26T01:20:51;7.60;99.90
13251;DHT22;6692;50.710;7.180;2024-02-26T01:22:52;7.60;99.90
13251;DHT22;6692;50.710;7.180;2024-02-26T01:24:53;7.60;99.90
13251;DHT22;6692;50.710;7.180;2024-02-26T01:26:54;7.60;99.90
13251;DHT22;6692;50.710;7.180;2024-02-26T01:28:54;7.60;99.90
13251;DHT22;6692;50.710;7.180;2024-02-26T01:30:55;7.60;99.90
13251;DHT22;6692;50.710;7.180;2024-02-26T01:32:56;7.60;99.90
13251;DHT22;6692;50.710;7.180;2024-02-26T01:34:57;7.60;99.90
13251;DHT22;6692;50.710;7.180;2024-02-26T01:36:58;7.60;99.90
13251;DHT22;6692;50.710;7.180;2024-02-26T01:38:58;7.50;99.90
13251;DHT22;6692;50.710;7.180;2024-02-26T01:41:00;7.50;99.90
13251;DHT22;6692;50.710;7.180;2024-02-26T01:43:01;7.50;99.90
13251;DHT22;6692;50.710;7.180;2024-02-26T01:45:03;7.50;99.90
13251;DHT22;6692;50.710;7.180;2024-02-26T01:47:05;7.40;99.90
13251;DHT22;6692;50.710;7.180;2024-02-26T01:49:07;7.50;99.90
13251;DHT22;6692;50.710;7.180;2024-02-26T01:51:07;7.40;99.90
13251;DHT22;6692;50.710;7.180;2024-02-26T01:53:08;7.40;99.90
13251;DHT22;6692;50.710;7.180;2024-02-26T01:55:08;7.40;99.90
13251;DHT22;6692;50.710;7.180;2024-02-26T01:57:09;7.40;99.90
13251;DHT22;6692;50.710;7.180;2024-02-26T01:59:10;7.40;99.90
13251;DHT22;6692;50.710;7.180;2024-02-26T02:01:11;7.40;99.90
13251;DHT22;6692;50.710;7.180;2024-02-26T02:03:11;7.40;99.90
13251;DHT22;6692;50.710;7.180;2024-02-26T02:05:13;7.40;99.90
13251;DHT22;6692;50.710;7.180;2024-02-26T02:07:13;7.40;99.90
13251;DHT22;6692;50.710;7.180;2024-02-26T02:09:14;7.40;99.90
13251;DHT22;6692;50.710;7.180;2024-02-26T02:11:16;7.40;99.90
13251;DHT22;6692;50.710;7.180;2024-02-26T02:13:16;7.40;99.90
13251;DHT22;6692;50.710;7.180;2024-02-26T02:15:17;7.40;99.90
13251;DHT22;6692;50.710;7.180;2024-02-26T02:17:18;7.40;99.90
13251;DHT22;6692;50.710;7.180;2024-02-26T02:19:18;7.40;99.90
13251;DHT22;6692;50.710;7.180;2024-02-26T02:21:19;7.40;99.90
13251;DHT22;6692;50.710;7.180;2024-02-26T02:23:20;7.40;99.90
13251;DHT22;6692;50.710;7.180;2024-02-26T02:25:21;7.40;99.90
13251;DHT22;6692;50.710;7.180;2024-02-26T02:27:21;7.40;99.90
13251;DHT22;6692;50.710;7.180;2024-02-26T02:29:22;7.40;99.90
13251;DHT22;6692;50.710;7.180;2024-02-26T02:31:23;7.40;99.90
13251;DHT22;6692;50.710;7.180;2024-02-26T02:33:23;7.40;99.90
13251;DHT22;6692;50.710;7.180;2024-02-26T02:35:24;7.40;99.90
13251;DHT22;6692;50.710;7.180;2024-02-26T02:37:25;7.40;99.90
13251;DHT22;6692;50.710;7.180;2024-02-26T02:39:26;7.40;99.90
13251;DHT22;6692;50.710;7.180;2024-02-26T02:41:26;7.40;99.90
13251;DHT22;6692;50.710;7.180;2024-02-26T02:43:27;7.40;99.90
13251;DHT22;6692;50.710;7.180;2024-02-26T02:45:28;7.40;99.90
13251;DHT22;6692;50.710;7.180;2024-02-26T02:47:30;7.40;99.90
13251;DHT22;6692;50.710;7.180;2024-02-26T02:49:30;7.40;99.90
13251;DHT22;6692;50.710;7.180;2024-02-26T02:51:31;7.40;99.90
13251;DHT22;6692;50.710;7.180;2024-02-26T02:53:32;7.50;99.90
13251;DHT22;6692;50.710;7.180;2024-02-26T02:55:33;7.40;99.90
13251;DHT22;6692;50.710;7.180;2024-02-26T02:57:35;7.40;99.90
13251;DHT22;6692;50.710;7.180;2024-02-26T02:59:36;7.40;99.90
13251;DHT22;6692;50.710;7.180;2024-02-26T03:01:37;7.40;99.90
13251;DHT22;6692;50.710;7.180;2024-02-26T03:03:38;7.50;99.90
13251;DHT22;6692;50.710;7.180;2024-02-26T03:05:38;7.50;99.90
13251;DHT22;6692;50.710;7.180;2024-02-26T03:07:39;7.60;99.90
13251;DHT22;6692;50.710;7.180;2024-02-26T03:09:40;7.60;99.90
13251;DHT22;6692;50.710;7.180;2024-02-26T03:11:41;7.60;99.90
13251;DHT22;6692;50.710;7.180;2024-02-26T03:13:42;7.60;99.90
13251;DHT22;6692;50.710;7.180;2024-02-26T03:15:43;7.60;99.90
13251;DHT22;6692;50.710;7.180;2024-02-26T03:17:44;7.60;99.90
13251;DHT22;6692;50.710;7.180;2024-02-26T03:19:46;7.70;99.90
13251;DHT22;6692;50.710;7.180;2024-02-26T03:21:48;7.70;99.90
13251;DHT22;6692;50.710;7.180;2024-02-26T03:23:49;7.70;99.90
13251;DHT22;6692;50.710;7.180;2024-02-26T03:25:50;7.70;99.90
13251;DHT22;6692;50.710;7.180;2024-02-26T03:27:52;7.70;99.90
13251;DHT22;6692;50.710;7.180;2024-02-26T03:29:53;7.70;99.90
13251;DHT22;6692;50.710;7.180;2024-02-26T03:31:55;7.70;99.90
13251;DHT22;6692;50.710;7.180;2024-02-26T03:33:57;7.70;99.90
13251;DHT22;6692;50.710;7.180;2024-02-26T03:35:58;7.70;99.90
13251;DHT22;6692;50.710;7.180;2024-02-26T03:38:00;7.70;99.90
13251;DHT22;6692;50.710;7.180;2024-02-26T03:40:01;7.70;99.90
13251;DHT22;6692;50.710;7.180;2024-02-26T03:42:02;7.70;99.90
13251;DHT22;6692;50.710;7.180;2024-02-26T03:44:03;7.70;99.90
13251;DHT22;6692;50.710;7.180;2024-02-26T03:46:03;7.70;99.90
13251;DHT22;6692;50.710;7.180;2024-02-26T03:48:05;7.70;99.90
13251;DHT22;6692;50.710;7.180;2024-02-26T03:50:07;7.70;99.90
13251;DHT22;6692;50.710;7.180;2024-02-26T03:52:08;7.70;99.90
13251;DHT22;6692;50.710;7.180;2024-02-26T03:54:09;7.70;99.90
13251;DHT22;6692;50.710;7.180;2024-02-26T03:56:12;7.70;99.90
13251;DHT22;6692;50.710;7.180;2024-02-26T03:58:12;7.70;99.90
13251;DHT22;6692;50.710;7.180;2024-02-26T04:00:13;7.70;99.90
13251;DHT22;6692;50.710;7.180;2024-02-26T04:02:14;7.70;99.90
13251;DHT22;6692;50.710;7.180;2024-02-26T04:04:15;7.70;99.90
13251;DHT22;6692;50.710;7.180;2024-02-26T04:06:16;7.70;99.90
13251;DHT22;6692;50.710;7.180;2024-02-26T04:08:16;7.70;99.90
13251;DHT22;6692;50.710;7.180;2024-02-26T04:10:18;7.60;99.90
13251;DHT22;6692;50.710;7.180;2024-02-26T04:12:19;7.60;99.90
13251;DHT22;6692;50.710;7.180;2024-02-26T04:14:21;7.70;99.90
13251;DHT22;6692;50.710;7.180;2024-02-26T04:16:22;7.70;99.90
13251;DHT22;6692;50.710;7.180;2024-02-26T04:18:22;7.60;99.90
13251;DHT22;6692;50.710;7.180;2024-02-26T04:20:23;7.60;99.90
13251;DHT22;6692;50.710;7.180;2024-02-26T04:22:24;7.70;99.90
13251;DHT22;6692;50.710;7.180;2024-02-26T04:24:25;7.70;99.90
13251;DHT22;6692;50.710;7.180;2024-02-26T04:26:26;7.60;99.90
13251;DHT22;6692;50.710;7.180;2024-02-26T04:28:27;7.60;99.90
13251;DHT22;6692;50.710;7.180;2024-02-26T04:30:27;7.70;99.90
13251;DHT22;6692;50.710;7.180;2024-02-26T04:32:28;7.70;99.90
13251;DHT22;6692;50.710;7.180;2024-02-26T04:34:30;7.70;99.90
13251;DHT22;6692;50.710;7.180;2024-02-26T04:36:30;7.70;99.90
13251;DHT22;6692;50.710;7.180;2024-02-26T04:38:32;7.70;99.90
13251;DHT22;6692;50.710;7.180;2024-02-26T04:40:33;7.70;99.90
13251;DHT22;6692;50.710;7.180;2024-02-26T04:42:34;7.70;99.90
13251;DHT22;6692;50.710;7.180;2024-02-26T04:44:35;7.70;99.90
13251;DHT22;6692;50.710;7.180;2024-02-26T04:46:36;7.70;99.90
13251;DHT22;6692;50.710;7.180;2024-02-26T04:48:37;7.70;99.90
13251;DHT22;6692;50.710;7.180;2024-02-26T04:50:39;7.60;99.90
13251;DHT22;6692;50.710;7.180;2024-02-26T04:52:40;7.70;99.90
13251;DHT22;6692;50.710;7.180;2024-02-26T04:54:41;7.60;99.90
13251;DHT22;6692;50.710;7.180;2024-02-26T04:56:42;7.60;99.90
13251;DHT22;6692;50.710;7.180;2024-02-26T04:58:42;7.70;99.90
13251;DHT22;6692;50.710;7.180;2024-02-26T05:00:44;7.70;99.90
13251;DHT22;6692;50.710;7.180;2024-02-26T05:02:45;7.60;99.90
13251;DHT22;6692;50.710;7.180;2024-02-26T05:04:46;7.60;99.90
13251;DHT22;6692;50.710;7.180;2024-02-26T05:06:47;7.60;99.90
13251;DHT22;6692;50.710;7.180;2024-02-26T05:08:49;7.60;99.90
13251;DHT22;6692;50.710;7.180;2024-02-26T05:10:49;7.60;99.90
13251;DHT22;6692;50.710;7.180;2024-02-26T05:12:51;7.60;99.90
13251;DHT22;6692;50.710;7.180;2024-02-26T05:14:52;7.60;99.90
13251;DHT22;6692;50.710;7.180;2024-02-26T05:16:53;7.50;99.90
13251;DHT22;6692;50.710;7.180;2024-02-26T05:18:54;7.50;99.90
13251;DHT22;6692;50.710;7.180;2024-02-26T05:20:55;7.50;99.90
13251;DHT22;6692;50.710;7.180;2024-02-26T05:22:56;7.50;99.90
13251;DHT22;6692;50.710;7.180;2024-02-26T05:24:57;7.40;99.90
13251;DHT22;6692;50.710;7.180;2024-02-26T05:26:59;7.40;99.90
13251;DHT22;6692;50.710;7.180;2024-02-26T05:28:59;7.40;99.90
13251;DHT22;6692;50.710;7.180;2024-02-26T05:31:00;7.40;99.90
13251;DHT22;6692;50.710;7.180;2024-02-26T05:33:00;7.40;99.90
13251;DHT22;6692;50.710;7.180;2024-02-26T05:35:01;7.30;99.90
13251;DHT22;6692;50.710;7.180;2024-02-26T05:37:02;7.30;99.90
13251;DHT22;6692;50.710;7.180;2024-02-26T05:39:03;7.30;99.90
13251;DHT22;6692;50.710;7.180;2024-02-26T05:41:05;7.30;99.90
13251;DHT22;6692;50.710;7.180;2024-02-26T05:43:06;7.30;99.90
13251;DHT22;6692;50.710;7.180;2024-02-26T05:45:07;7.30;99.90
13251;DHT22;6692;50.710;7.180;2024-02-26T05:47:09;7.20;99.90
13251;DHT22;6692;50.710;7.180;2024-02-26T05:49:09;7.30;99.90
13251;DHT22;6692;50.710;7.180;2024-02-26T05:51:10;7.30;99.90
13251;DHT22;6692;50.710;7.180;2024-02-26T05:53:12;7.30;99.90
13251;DHT22;6692;50.710;7.180;2024-02-26T05:55:12;7.20;99.90
13251;DHT22;6692;50.710;7.180;2024-02-26T05:57:13;7.30;99.90
13251;DHT22;6692;50.710;7.180;2024-02-26T05:59:14;7.30;99.90
13251;DHT22;6692;50.710;7.180;2024-02-26T06:01:16;7.30;99.90
13251;DHT22;6692;50.710;7.180;2024-02-26T06:03:16;7.30;99.90
13251;DHT22;6692;50.710;7.180;2024-02-26T06:05:17;7.20;99.90
13251;DHT22;6692;50.710;7.180;2024-02-26T06:07:18;7.20;99.90
13251;DHT22;6692;50.710;7.180;2024-02-26T06:09:19;7.20;99.90
13251;DHT22;6692;50.710;7.180;2024-02-26T06:11:20;7.20;99.90
13251;DHT22;6692;50.710;7.180;2024-02-26T06:13:21;7.20;99.90
13251;DHT22;6692;50.710;7.180;2024-02-26T06:15:22;7.20;99.90
13251;DHT22;6692;50.710;7.180;2024-02-26T06:17:23;7.20;99.90
13251;DHT22;6692;50.710;7.180;2024-02-26T06:19:23;7.20;99.90
13251;DHT22;6692;50.710;7.180;2024-02-26T06:21:24;7.20;99.90
13251;DHT22;6692;50.710;7.180;2024-02-26T06:23:25;7.20;99.90
13251;DHT22;6692;50.710;7.180;2024-02-26T06:25:25;7.20;99.90
13251;DHT22;6692;50.710;7.180;2024-02-26T06:27:26;7.20;99.90
13251;DHT22;6692;50.710;7.180;2024-02-26T06:29:28;7.10;99.90
13251;DHT22;6692;50.710;7.180;2024-02-26T06:31:28;7.10;99.90
13251;DHT22;6692;50.710;7.180;2024-02-26T06:33:30;7.10;99.90
13251;DHT22;6692;50.710;7.180;2024-02-26T06:35:30;7.10;99.90
13251;DHT22;6692;50.710;7.180;2024-02-26T06:37:31;7.10;99.90
13251;DHT22;6692;50.710;7.180;2024-02-26T06:39:32;7.20;99.90
13251;DHT22;6692;50.710;7.180;2024-02-26T06:41:32;7.10;99.90
13251;DHT22;6692;50.710;7.180;2024-02-26T06:43:33;7.10;99.90
13251;DHT22;6692;50.710;7.180;2024-02-26T06:45:34;7.10;99.90
13251;DHT22;6692;50.710;7.180;2024-02-26T06:47:34;7.10;99.90
13251;DHT22;6692;50.710;7.180;2024-02-26T06:49:35;7.10;99.90
13251;DHT22;6692;50.710;7.180;2024-02-26T06:51:36;7.10;99.90
13251;DHT22;6692;50.710;7.180;2024-02-26T06:53:36;7.10;99.90
13251;DHT22;6692;50.710;7.180;2024-02-26T06:55:37;7.20;99.90
13251;DHT22;6692;50.710;7.180;2024-02-26T06:57:38;7.20;99.90
13251;DHT22;6692;50.710;7.180;2024-02-26T06:59:39;7.20;99.90
13251;DHT22;6692;50.710;7.180;2024-02-26T07:01:41;7.20;99.90
13251;DHT22;6692;50.710;7.180;2024-02-26T07:03:47;7.20;99.90
13251;DHT22;6692;50.710;7.180;2024-02-26T07:05:49;7.20;99.90
13251;DHT22;6692;50.710;7.180;2024-02-26T07:07:52;7.20;99.90
13251;DHT22;6692;50.710;7.180;2024-02-26T07:09:53;7.20;99.90
13251;DHT22;6692;50.710;7.180;2024-02-26T07:11:55;7.20;99.90
13251;DHT22;6692;50.710;7.180;2024-02-26T07:13:56;7.20;99.90
13251;DHT22;6692;50.710;7.180;2024-02-26T07:15:57;7.20;99.90
13251;DHT22;6692;50.710;7.180;2024-02-26T07:17:58;7.20;99.90
13251;DHT22;6692;50.710;7.180;2024-02-26T07:19:59;7.20;99.90
13251;DHT22;6692;50.710;7.180;2024-02-26T07:22:00;7.20;99.90
13251;DHT22;6692;50.710;7.180;2024-02-26T07:24:01;7.20;99.90
13251;DHT22;6692;50.710;7.180;2024-02-26T07:26:03;7.20;99.90
13251;DHT22;6692;50.710;7.180;2024-02-26T07:28:04;7.20;99.90
13251;DHT22;6692;50.710;7.180;2024-02-26T07:30:06;7.20;99.90
13251;DHT22;6692;50.710;7.180;2024-02-26T07:32:07;7.20;99.90
13251;DHT22;6692;50.710;7.180;2024-02-26T07:34:08;7.20;99.90
13251;DHT22;6692;50.710;7.180;2024-02-26T07:36:09;7.20;99.90
13251;DHT22;6692;50.710;7.180;2024-02-26T07:38:10;7.20;99.90
13251;DHT22;6692;50.710;7.180;2024-02-26T07:40:11;7.20;99.90
13251;DHT22;6692;50.710;7.180;2024-02-26T07:42:12;7.20;99.90
13251;DHT22;6692;50.710;7.180;2024-02-26T07:44:13;7.20;99.90
13251;DHT22;6692;50.710;7.180;2024-02-26T07:46:13;7.30;99.90
13251;DHT22;6692;50.710;7.180;2024-02-26T07:48:14;7.30;99.90
13251;DHT22;6692;50.710;7.180;2024-02-26T07:50:17;7.30;99.90
13251;DHT22;6692;50.710;7.180;2024-02-26T07:52:18;7.30;99.90
13251;DHT22;6692;50.710;7.180;2024-02-26T07:54:19;7.30;99.90
13251;DHT22;6692;50.710;7.180;2024-02-26T07:56:19;7.30;99.90
13251;DHT22;6692;50.710;7.180;2024-02-26T07:58:20;7.30;99.90
13251;DHT22;6692;50.710;7.180;2024-02-26T08:00:21;7.30;99.90
13251;DHT22;6692;50.710;7.180;2024-02-26T08:02:22;7.30;99.90
13251;DHT22;6692;50.710;7.180;2024-02-26T08:04:23;7.30;99.90
13251;DHT22;6692;50.710;7.180;2024-02-26T08:06:24;7.30;99.90
13251;DHT22;6692;50.710;7.180;2024-02-26T08:08:25;7.30;99.90
13251;DHT22;6692;50.710;7.180;2024-02-26T08:10:25;7.30;99.90
13251;DHT22;6692;50.710;7.180;2024-02-26T08:12:26;7.30;99.90
13251;DHT22;6692;50.710;7.180;2024-02-26T08:14:27;7.30;99.90
13251;DHT22;6692;50.710;7.180;2024-02-26T08:16:28;7.30;99.90
13251;DHT22;6692;50.710;7.180;2024-02-26T08:18:28;7.30;99.90
13251;DHT22;6692;50.710;7.180;2024-02-26T08:20:30;7.30;99.90
13251;DHT22;6692;50.710;7.180;2024-02-26T08:22:31;7.30;99.90
13251;DHT22;6692;50.710;7.180;2024-02-26T08:24:32;7.30;99.90
13251;DHT22;6692;50.710;7.180;2024-02-26T08:26:32;7.30;99.90
13251;DHT22;6692;50.710;7.180;2024-02-26T08:28:34;7.30;99.90
13251;DHT22;6692;50.710;7.180;2024-02-26T08:30:35;7.30;99.90
13251;DHT22;6692;50.710;7.180;2024-02-26T08:32:36;7.30;99.90
13251;DHT22;6692;50.710;7.180;2024-02-26T08:34:37;7.30;99.90
13251;DHT22;6692;50.710;7.180;2024-02-26T08:36:38;7.30;99.90
13251;DHT22;6692;50.710;7.180;2024-02-26T08:38:39;7.30;99.90
13251;DHT22;6692;50.710;7.180;2024-02-26T08:40:39;7.30;99.90
13251;DHT22;6692;50.710;7.180;2024-02-26T08:42:40;7.40;99.90
13251;DHT22;6692;50.710;7.180;2024-02-26T08:44:42;7.30;99.90
13251;DHT22;6692;50.710;7.180;2024-02-26T08:46:42;7.30;99.90
13251;DHT22;6692;50.710;7.180;2024-02-26T08:48:43;7.30;99.90
13251;DHT22;6692;50.710;7.180;2024-02-26T08:50:44;7.30;99.90
13251;DHT22;6692;50.710;7.180;2024-02-26T08:52:45;7.30;99.90
13251;DHT22;6692;50.710;7.180;2024-02-26T08:54:46;7.30;99.90
13251;DHT22;6692;50.710;7.180;2024-02-26T08:56:47;7.40;99.90
13251;DHT22;6692;50.710;7.180;2024-02-26T08:58:48;7.30;99.90
13251;DHT22;6692;50.710;7.180;2024-02-26T09:00:49;7.30;99.90
13251;DHT22;6692;50.710;7.180;2024-02-26T09:02:50;7.40;99.90
13251;DHT22;6692;50.710;7.180;2024-02-26T09:04:51;7.40;99.90
13251;DHT22;6692;50.710;7.180;2024-02-26T09:06:52;7.40;99.90
13251;DHT22;6692;50.710;7.180;2024-02-26T09:08:52;7.40;99.90
13251;DHT22;6692;50.710;7.180;2024-02-26T09:10:53;7.40;99.90
13251;DHT22;6692;50.710;7.180;2024-02-26T09:12:54;7.40;99.90
13251;DHT22;6692;50.710;7.180;2024-02-26T09:14:55;7.40;99.90
13251;DHT22;6692;50.710;7.180;2024-02-26T09:16:55;7.40;99.90
13251;DHT22;6692;50.710;7.180;2024-02-26T09:18:56;7.40;99.90
13251;DHT22;6692;50.710;7.180;2024-02-26T09:31:29;7.40;99.90
13251;DHT22;6692;50.710;7.180;2024-02-26T09:33:30;7.50;99.90
13251;DHT22;6692;50.710;7.180;2024-02-26T09:35:30;7.50;99.90
13251;DHT22;6692;50.710;7.180;2024-02-26T09:37:31;7.60;99.90
13251;DHT22;6692;50.710;7.180;2024-02-26T09:39:32;7.70;99.90
13251;DHT22;6692;50.710;7.180;2024-02-26T09:41:33;7.70;99.90
13251;DHT22;6692;50.710;7.180;2024-02-26T09:43:34;7.80;99.90
13251;DHT22;6692;50.710;7.180;2024-02-26T09:45:35;7.90;99.90
13251;DHT22;6692;50.710;7.180;2024-02-26T09:47:36;7.90;99.90
13251;DHT22;6692;50.710;7.180;2024-02-26T09:49:37;7.80;99.90
13251;DHT22;6692;50.710;7.180;2024-02-26T09:51:38;7.80;99.90
13251;DHT22;6692;50.710;7.180;2024-02-26T09:53:40;7.80;99.90
13251;DHT22;6692;50.710;7.180;2024-02-26T09:55:40;7.80;99.90
13251;DHT22;6692;50.710;7.180;2024-02-26T09:57:44;7.80;99.90
13251;DHT22;6692;50.710;7.180;2024-02-26T09:59:43;7.80;99.90
13251;DHT22;6692;50.710;7.180;2024-02-26T10:01:44;7.80;99.90
13251;DHT22;6692;50.710;7.180;2024-02-26T10:03:44;7.80;99.90
13251;DHT22;6692;50.710;7.180;2024-02-26T10:05:45;7.80;99.90
13251;DHT22;6692;50.710;7.180;2024-02-26T10:07:47;7.80;99.90
13251;DHT22;6692;50.710;7.180;2024-02-26T10:09:48;7.90;99.90
13251;DHT22;6692;50.710;7.180;2024-02-26T10:11:50;7.90;99.90
13251;DHT22;6692;50.710;7.180;2024-02-26T10:13:54;7.90;99.90
13251;DHT22;6692;50.710;7.180;2024-02-26T10:15:56;8.10;99.90
13251;DHT22;6692;50.710;7.180;2024-02-26T10:17:59;8.10;99.90
13251;DHT22;6692;50.710;7.180;2024-02-26T10:22:11;8.20;99.90
13251;DHT22;6692;50.710;7.180;2024-02-26T10:24:14;8.40;99.90
13251;DHT22;6692;50.710;7.180;2024-02-26T10:26:15;8.50;99.90
13251;DHT22;6692;50.710;7.180;2024-02-26T10:28:16;8.60;99.90
13251;DHT22;6692;50.710;7.180;2024-02-26T10:30:17;8.60;99.90
13251;DHT22;6692;50.710;7.180;2024-02-26T10:37:34;8.70;99.90
13251;DHT22;6692;50.710;7.180;2024-02-26T10:39:36;8.70;99.90
13251;DHT22;6692;50.710;7.180;2024-02-26T10:41:38;8.70;99.90
13251;DHT22;6692;50.710;7.180;2024-02-26T10:43:41;8.60;99.90
13251;DHT22;6692;50.710;7.180;2024-02-26T10:45:46;8.60;99.90
13251;DHT22;6692;50.710;7.180;2024-02-26T13:57:03;9.00;99.90
13251;DHT22;6692;50.710;7.180;2024-02-26T13:59:04;9.00;99.90
13251;DHT22;6692;50.710;7.180;2024-02-26T14:01:08;9.00;99.90
13251;DHT22;6692;50.710;7.180;2024-02-26T14:03:11;9.00;99.90
13251;DHT22;6692;50.710;7.180;2024-02-26T14:05:15;9.00;99.90
13251;DHT22;6692;50.710;7.180;2024-02-26T14:07:16;9.00;99.90
13251;DHT22;6692;50.710;7.180;2024-02-26T14:17:12;9.10;99.90
13251;DHT22;6692;50.710;7.180;2024-02-26T14:19:13;9.10;99.90
13251;DHT22;6692;50.710;7.180;2024-02-26T14:21:13;9.10;99.90
13251;DHT22;6692;50.710;7.180;2024-02-26T14:23:14;9.10;99.90
13251;DHT22;6692;50.710;7.180;2024-02-26T14:25:15;9.20;99.90
13251;DHT22;6692;50.710;7.180;2024-02-26T14:27:15;9.30;99.90
13251;DHT22;6692;50.710;7.180;2024-02-26T14:29:16;9.30;99.90
13251;DHT22;6692;50.710;7.180;2024-02-26T14:31:17;9.30;99.90
13251;DHT22;6692;50.710;7.180;2024-02-26T14:33:18;9.30;99.90
13251;DHT22;6692;50.710;7.180;2024-02-26T14:35:19;9.30;99.90
13251;DHT22;6692;50.710;7.180;2024-02-26T14:37:20;9.30;99.90
13251;DHT22;6692;50.710;7.180;2024-02-26T14:39:21;9.30;99.90
13251;DHT22;6692;50.710;7.180;2024-02-26T14:41:22;9.30;99.90
13251;DHT22;6692;50.710;7.180;2024-02-26T14:43:22;9.20;99.90
13251;DHT22;6692;50.710;7.180;2024-02-26T14:45:23;9.20;99.90
13251;DHT22;6692;50.710;7.180;2024-02-26T14:47:24;9.20;99.90
13251;DHT22;6692;50.710;7.180;2024-02-26T14:49:24;9.10;99.90
13251;DHT22;6692;50.710;7.180;2024-02-26T14:51:25;9.10;99.90
13251;DHT22;6692;50.710;7.180;2024-02-26T14:53:26;9.10;99.90
13251;DHT22;6692;50.710;7.180;2024-02-26T15:05:20;9.00;99.90
13251;DHT22;6692;50.710;7.180;2024-02-26T15:07:23;9.00;99.90
13251;DHT22;6692;50.710;7.180;2024-02-26T15:12:13;8.90;99.90
13251;DHT22;6692;50.710;7.180;2024-02-26T15:14:26;8.90;99.90
13251;DHT22;6692;50.710;7.180;2024-02-26T15:37:57;8.70;99.90
13251;DHT22;6692;50.710;7.180;2024-02-26T15:39:57;8.60;99.90
13251;DHT22;6692;50.710;7.180;2024-02-26T15:41:58;8.70;99.90
13251;DHT22;6692;50.710;7.180;2024-02-26T15:43:59;8.70;99.90
13251;DHT22;6692;50.710;7.180;2024-02-26T15:46:00;8.70;99.90
13251;DHT22;6692;50.710;7.180;2024-02-26T15:48:00;8.70;99.90
13251;DHT22;6692;50.710;7.180;2024-02-26T15:50:01;8.80;99.90
13251;DHT22;6692;50.710;7.180;2024-02-26T15:52:02;8.80;99.90
13251;DHT22;6692;50.710;7.180;2024-02-26T15:54:03;8.80;99.90
13251;DHT22;6692;50.710;7.180;2024-02-26T15:56:05;8.90;99.90
13251;DHT22;6692;50.710;7.180;2024-02-26T15:58:07;8.90;99.90
13251;DHT22;6692;50.710;7.180;2024-02-26T16:00:06;8.90;99.90
13251;DHT22;6692;50.710;7.180;2024-02-26T16:02:07;9.00;99.90
13251;DHT22;6692;50.710;7.180;2024-02-26T16:04:08;9.00;99.90
13251;DHT22;6692;50.710;7.180;2024-02-26T16:06:11;9.00;99.90
13251;DHT22;6692;50.710;7.180;2024-02-26T16:08:13;9.00;99.90
13251;DHT22;6692;50.710;7.180;2024-02-26T16:10:12;9.00;99.90
13251;DHT22;6692;50.710;7.180;2024-02-26T16:12:15;9.10;99.90
13251;DHT22;6692;50.710;7.180;2024-02-26T16:14:19;9.10;99.90
13251;DHT22;6692;50.710;7.180;2024-02-26T16:16:16;9.10;99.90
13251;DHT22;6692;50.710;7.180;2024-02-26T16:18:15;9.10;99.90
13251;DHT22;6692;50.710;7.180;2024-02-26T16:20:18;9.10;99.90
13251;DHT22;6692;50.710;7.180;2024-02-26T16:22:18;9.10;99.90
13251;DHT22;6692;50.710;7.180;2024-02-26T16:24:18;9.00;99.90
13251;DHT22;6692;50.710;7.180;2024-02-26T16:26:19;9.00;99.90
13251;DHT22;6692;50.710;7.180;2024-02-26T16:28:20;9.00;99.90
13251;DHT22;6692;50.710;7.180;2024-02-26T16:30:20;9.00;99.90
13251;DHT22;6692;50.710;7.180;2024-02-26T16:32:21;9.00;99.90
13251;DHT22;6692;50.710;7.180;2024-02-26T16:34:22;8.90;99.90
13251;DHT22;6692;50.710;7.180;2024-02-26T16:36:22;8.90;99.90
13251;DHT22;6692;50.710;7.180;2024-02-26T16:38:23;8.90;99.90
13251;DHT22;6692;50.710;7.180;2024-02-26T16:40:24;8.90;99.90
13251;DHT22;6692;50.710;7.180;2024-02-26T16:42:25;8.90;99.90
13251;DHT22;6692;50.710;7.180;2024-02-26T16:44:25;8.90;99.90
13251;DHT22;6692;50.710;7.180;2024-02-26T16:46:26;8.80;99.90
13251;DHT22;6692;50.710;7.180;2024-02-26T16:48:28;8.80;99.90
13251;DHT22;6692;50.710;7.180;2024-02-26T16:50:28;8.80;99.90
13251;DHT22;6692;50.710;7.180;2024-02-26T16:52:29;8.80;99.90
13251;DHT22;6692;50.710;7.180;2024-02-26T16:54:29;8.80;99.90
13251;DHT22;6692;50.710;7.180;2024-02-26T16:56:30;8.80;99.90
13251;DHT22;6692;50.710;7.180;2024-02-26T16:58:31;8.80;99.90
13251;DHT22;6692;50.710;7.180;2024-02-26T17:00:31;8.80;99.90
13251;DHT22;6692;50.710;7.180;2024-02-26T17:02:33;8.90;99.90
13251;DHT22;6692;50.710;7.180;2024-02-26T17:04:33;8.80;99.90
13251;DHT22;6692;50.710;7.180;2024-02-26T17:06:34;8.90;99.90
13251;DHT22;6692;50.710;7.180;2024-02-26T17:08:35;8.90;99.90
13251;DHT22;6692;50.710;7.180;2024-02-26T17:10:36;8.90;99.90
13251;DHT22;6692;50.710;7.180;2024-02-26T17:12:37;8.90;99.90
13251;DHT22;6692;50.710;7.180;2024-02-26T17:14:38;8.90;99.90
13251;DHT22;6692;50.710;7.180;2024-02-26T17:16:38;8.90;99.90
13251;DHT22;6692;50.710;7.180;2024-02-26T17:18:39;8.90;99.90